Ahtari, Finland

6:54 PM EEST on August 01, 2014 (GMT +0300)
Lehtimaki (ILNSISUO23) Elev 669 ft | 62.82 °N, 23.95 °E | Change Station

Current weather conditions updated 0 second ago

Partly Cloudy
Partly Cloudy
69.1 °F
Feels Like 69.1 °F
N
2.2
Wind Variable Wind from SSE
Gusts 4.6 mph

Tomorrow is forecast to be nearly the same temperature as today.

Today
High -- | Low -- °F
--% Chance of Precip.
Yesterday
High -- | Low -- °F
Precip. -- in
4:44 AM 10:12 PM
Waxing Crescent, 27% visible
Pressure 29.83 in
Visibility 6.2 miles
Clouds Few 300 ft
Dew Point 63 °F
Humidity 81%
Rainfall 0.18 in
Snow Depth Not available.
UV 1 out of 12
Pollen Not available.
Air Quality Not available.
Flu Activity Not available.
METAR EFJY 011550Z AUTO 24008KT 200V290 9999 FEW003 24/13 Q1010

More Conditions Fewer Conditions

Pressure 29.83 in
Visibility 6.2 miles
Clouds Few 300 ft
Dew Point 63 °F
Humidity 81%
Rainfall 0.18 in
Snow Depth Not available.
UV 1 out of 12
Pollen Not available.
Air Quality Not available.
Flu Activity Not available.
METAR EFJY 011550Z AUTO 24008KT 200V290 9999 FEW003 24/13 Q1010

More Conditions Fewer Conditions

10-Day Weather Forecast

Almanac

Astronomy

Aug. 01, 2014 Rise Set
Actual Time 4:44 AM EEST 10:12 PM EEST
Civil Twilight 3:29 AM EEST 11:25 PM EEST
Nautical Twilight Sun does not rise 12:56 AM EEST
Astronomical Twilight Sun does not rise Sun does not rise
Moon 11:47 AM EEST 10:43 PM EEST
Length of Visible Light 19h 56m
Length of Day
17h 28m
Tomorrow will be 5m 45s shorter.
Waxing Crescent, 27% of the Moon is Illuminated
Today
Waxing Crescent
Aug 3
First Quarter
Aug 10
Full
Aug 17
Last Quarter
Aug 25
New

Today's Extremes

Country Highs Country Lows

Community

WunderPhotos

Upload Photos

1,739,618 photos uploaded!

Nearby

Snow Depth

Not available.

Earthquake Activity

City Distance Mag. Time & Date
No recent earthquake activity has been reported nearby.
Minimum magnitude displayed is 2.5.

Coastal Water Temperatures

Place Temperature
No Stations Reporting

Nearby Weather Stations

Station Location Temp. Heat Index Dew Point Humidity Wind Precip. Elev Updated Type
Lehtimaki, Alajarvi 69.1 °F - 63 °F 81% SSE  at  2.2 mph 0.00 in / hr 669 ft 6:54 PM EEST Rapid Fire
Keuruu SEIPONMÄKI 73.2 °F 77 °F 58 °F 58% SSW  at  2.2 mph 0.00 in / hr 387 ft 6:53 PM EEST Normal

Show More Stations Show Fewer Stations